Kapalua-West, HI

02:40 AM HST am 25. Oktober 2014 (GMT -1000)
The Ridge at Kapalua | Change Station
CLOSE
Current Station
Persönliche Wetterstationen
Location: Kapalua, HI
Höhe: 100 ft
Wetterstationen in der Umgebung

Höhe 100 ft 21.00 °N, 156.66 °W | Updated 38 seconds ago

Clear
Heiter
74.8 °F
gefühlte 74 °F
N
0.9
Wind Wechselnd Wind aus Ost
Gusts 2.0 mph

Heute
Max. -- | schwach -- °F
--% Regenrisiko
Gestern
Max. -- | schwach -- °F
Precip. -- inch
6:26 AM 5:55 PM
Erstes Viertel, 3% visible
Druck 30.03 inch
Sichtweite 10.0 Meilen
Wolken Heiter
Hitzeindex 74 °F
Taupunkt 71 °F
Feuchtigkeit 87%
Regen 0.00 inch
Schneehöhe Nicht verfügbar..
UV 0 von 12
Pollen Nicht verfügbar..
Luftqualität Nicht verfügbar..
Flu Activity Sporadic
METAR PHOG 251154Z AUTO 05006KT 10SM CLR 24/21 A3001 RMK AO2 SLP167 T02440211 10256 20244 58011 TSNO $

More Conditions Fewer Conditions

Druck 30.03 inch
Sichtweite 10.0 Meilen
Wolken Heiter
Hitzeindex 74 °F
Taupunkt 71 °F
Feuchtigkeit 87%
Regen 0.00 inch
Schneehöhe Nicht verfügbar..
UV 0 von 12
Pollen Nicht verfügbar..
Luftqualität Nicht verfügbar..
Flu Activity Sporadic
METAR PHOG 251154Z AUTO 05006KT 10SM CLR 24/21 A3001 RMK AO2 SLP167 T02440211 10256 20244 58011 TSNO $

More Conditions Fewer Conditions

10-Day Weather Forecast

Almanac

Astronomie

Oct. 25, 2014 Aufgang Untergang
Genaue Zeit 06:26 HST 17:55 HST
Bürgerliche Dämmerung 06:03 HST 18:17 HST
Nautische Dämmerung 05:37 HST 18:43 HST
Astronomische Dämmerung 05:11 HST 19:09 HST
Mond 08:06 HST 19:37 HST
Länge des sichtbaren Lichts 12h 14m
Tageslänge
11h 28m
Tomorrow will be 1m 4s shorter.
Erstes Viertel, 3% of the Moon is Illuminated
Heute
Erstes Viertel
Okt 30
Erstes Viertel
Nov 6
Vollmond
Nov 14
Letztes Viertel
Nov 22
Neu

Heutige Rekorde

State Highs State Lows

Community

WunderPhotos

Upload Photos

1,764,821 Fotos hochgeladen!

Nearby

Schneehöhe

Station Depth Höhe
Kein Neuschnee gemeldet.

Erdbebenaktivität

Stadt Distance Mag. Time & Date
No recent earthquake activity has been reported nearby.
Minimum magnitude displayed is 2.5.

küstennahe Wassertemperaturen

Ort Temperatur
Kein Stationsbericht

Wetterstationen in der Umgebung